Terminal Aerodrome Forecast
Issued by NWS

Home | Current Version | Previous Version | Text Only | Print | Product List | Glossary On
Versions: 1 2 3 4 5 6 7 8 9 10 11 12 13 14 15 16 17 18 19 20 21 22 23 24 25 26 27 28 29 30 31 32 33 34
000
FTUS43 KGRR 201700
TAFMKG
TAF
KMKG 201740Z 2018/2118 26008KT P6SM SCT010 SCT025
     FM202000 26005KT P6SM FEW035
     FM210800 VRB03KT 3SM BR SCT120
     FM211400 14006KT 6SM HZ SCT035 SCT120
     FM211700 22008KT P6SM FEW040 BKN120=

USA.gov is the U.S. government's official web portal to all federal, state and local government web resources and services.